createdAt,value
2022-12-28T00:01:15.363Z,3.85
2022-12-28T00:03:43.246Z,6.55
2022-12-28T00:06:13.606Z,1.92
2022-12-28T00:08:41.883Z,4.03
2022-12-28T00:11:20.302Z,2.97
2022-12-28T00:13:57.651Z,4.25
2022-12-28T00:16:30.404Z,2.95
2022-12-28T00:18:59.050Z,1.83
2022-12-28T00:21:27.103Z,0.88
2022-12-28T00:23:58.079Z,1.17
2022-12-28T00:26:29.219Z,1.40
2022-12-28T00:29:04.054Z,2.78
2022-12-28T00:31:35.338Z,4.18
2022-12-28T00:34:05.484Z,3.92
2022-12-28T00:39:26.309Z,3.15
2022-12-28T00:41:54.302Z,2.45
2022-12-28T00:44:22.463Z,6.53
2022-12-28T00:46:52.380Z,3.60
2022-12-28T00:49:20.135Z,3.80
2022-12-28T00:51:47.872Z,2.08
2022-12-28T00:54:15.976Z,11.77
2022-12-28T00:56:43.771Z,3.05
2022-12-28T00:59:11.703Z,1.92
2022-12-28T01:01:39.901Z,1.95
2022-12-28T01:04:07.710Z,0.82
2022-12-28T01:06:35.451Z,1.00
2022-12-28T01:09:03.479Z,7.13
2022-12-28T01:11:31.845Z,11.70
2022-12-28T01:14:00.703Z,3.50
2022-12-28T01:16:30.144Z,2.53
2022-12-28T01:19:00.256Z,3.42
2022-12-28T01:23:59.815Z,3.38
2022-12-28T01:26:27.878Z,3.92
2022-12-28T01:28:55.688Z,2.22
2022-12-28T01:31:23.530Z,1.80
2022-12-28T01:33:51.412Z,3.95
2022-12-28T01:36:22.707Z,3.63
2022-12-28T01:38:52.936Z,1.40
2022-12-28T01:41:20.968Z,2.78
2022-12-28T01:44:11.067Z,3.10
2022-12-28T01:46:52.157Z,2.28
2022-12-28T01:49:26.172Z,9.75
2022-12-28T01:52:00.508Z,6.07
2022-12-28T01:54:31.369Z,2.33
2022-12-28T01:56:59.524Z,1.50
2022-12-28T01:59:28.680Z,3.40
2022-12-28T02:01:56.710Z,2.35
2022-12-28T02:04:25.715Z,3.70
2022-12-28T02:06:53.775Z,2.33
2022-12-28T02:09:23.152Z,1.88
2022-12-28T02:11:51.561Z,1.88
2022-12-28T02:14:20.695Z,3.25
2022-12-28T02:16:48.663Z,13.10
2022-12-28T02:19:19.731Z,4.03
2022-12-28T02:22:08.816Z,2.75
2022-12-28T02:25:12.184Z,8.05
2022-12-28T02:27:47.319Z,5.68
2022-12-28T02:30:15.959Z,5.10
2022-12-28T02:32:56.608Z,10.23
2022-12-28T02:35:36.065Z,6.18
2022-12-28T02:38:13.025Z,8.73
2022-12-28T02:41:04.075Z,1.73
2022-12-28T02:43:33.071Z,3.17
2022-12-28T02:46:28.587Z,5.50
2022-12-28T02:49:28.501Z,1.42
2022-12-28T02:52:05.704Z,2.38
2022-12-28T02:55:15.697Z,2.50
2022-12-28T02:58:02.020Z,12.77
2022-12-28T03:00:52.575Z,1.35
2022-12-28T03:03:40.828Z,1.13
2022-12-28T03:06:37.777Z,3.10
2022-12-28T03:09:19.304Z,5.05
2022-12-28T03:11:54.392Z,2.15
2022-12-28T03:14:24.993Z,2.70
2022-12-28T03:17:13.134Z,2.58
2022-12-28T03:20:19.554Z,1.23
2022-12-28T03:23:05.796Z,1.67
2022-12-28T03:25:55.091Z,2.00
2022-12-28T03:28:47.278Z,2.63
2022-12-28T03:31:17.996Z,1.25
2022-12-28T03:33:53.270Z,4.03
2022-12-28T03:36:32.434Z,1.25
2022-12-28T03:39:09.205Z,3.15
2022-12-28T03:41:44.149Z,2.60
2022-12-28T03:44:19.797Z,3.58
2022-12-28T03:46:50.643Z,8.48
2022-12-28T03:49:18.483Z,3.78
2022-12-28T03:51:48.431Z,4.63
2022-12-28T03:54:17.198Z,2.25
2022-12-28T03:56:49.692Z,3.50
2022-12-28T03:59:17.679Z,2.80
2022-12-28T04:01:45.736Z,2.33
2022-12-28T04:04:13.524Z,1.50
2022-12-28T04:06:41.299Z,4.45
2022-12-28T04:09:10.068Z,6.70
2022-12-28T04:11:38.024Z,2.05
2022-12-28T04:14:10.517Z,2.13
2022-12-28T04:16:39.149Z,2.92
2022-12-28T04:19:07.082Z,2.60
2022-12-28T04:21:34.882Z,2.28
2022-12-28T04:24:02.632Z,1.60
2022-12-28T04:26:30.429Z,9.35
2022-12-28T04:29:02.054Z,2.83
2022-12-28T04:31:31.035Z,9.25
2022-12-28T04:33:59.468Z,7.63
2022-12-28T04:36:27.473Z,11.32
2022-12-28T04:38:55.371Z,2.38
2022-12-28T04:41:23.116Z,7.90
2022-12-28T04:43:50.839Z,5.43
2022-12-28T04:46:21.372Z,4.30
2022-12-28T04:48:49.190Z,3.47
2022-12-28T04:51:24.516Z,5.57
2022-12-28T04:53:55.140Z,4.18
2022-12-28T04:56:23.256Z,4.53
2022-12-28T04:58:54.764Z,10.52
2022-12-28T05:01:22.661Z,13.70
2022-12-28T05:03:55.167Z,2.22
2022-12-28T05:06:25.438Z,4.68
2022-12-28T05:08:54.046Z,4.40
2022-12-28T05:11:24.404Z,6.20
2022-12-28T05:13:52.504Z,11.05
2022-12-28T05:16:22.759Z,1.40
2022-12-28T05:18:50.569Z,2.58
2022-12-28T05:21:19.378Z,13.25
2022-12-28T05:23:47.375Z,10.52
2022-12-28T05:26:16.366Z,15.55
2022-12-28T05:28:44.299Z,2.50
2022-12-28T05:31:16.268Z,24.40
2022-12-28T05:33:44.340Z,7.57
2022-12-28T05:36:22.010Z,1.77
2022-12-28T05:38:49.746Z,2.33
2022-12-28T05:41:26.668Z,6.93
2022-12-28T05:43:55.119Z,9.52
2022-12-28T05:46:25.901Z,9.80
2022-12-28T05:48:56.692Z,7.65
2022-12-28T05:51:26.948Z,19.13
2022-12-28T05:53:54.643Z,23.30
2022-12-28T05:56:23.816Z,12.05
2022-12-28T05:58:57.727Z,10.45
2022-12-28T06:01:26.697Z,17.63
2022-12-28T06:03:56.231Z,10.23
2022-12-28T06:06:24.071Z,10.02
2022-12-28T06:08:52.034Z,13.75
2022-12-28T06:11:24.096Z,8.48
2022-12-28T06:13:52.413Z,4.78
2022-12-28T06:16:33.942Z,12.70
2022-12-28T06:19:06.692Z,12.05
2022-12-28T06:21:35.171Z,10.23
2022-12-28T06:24:04.044Z,8.90
2022-12-28T06:26:32.766Z,5.45
2022-12-28T06:29:02.019Z,22.05
2022-12-28T06:31:33.962Z,19.00
2022-12-28T06:34:02.114Z,6.20
2022-12-28T06:36:34.553Z,17.02
2022-12-28T06:39:04.076Z,16.42
2022-12-28T06:41:32.010Z,7.53
2022-12-28T06:44:00.074Z,16.45
2022-12-28T06:46:29.367Z,16.05
2022-12-28T06:48:57.570Z,19.77
2022-12-28T06:51:29.563Z,14.25
2022-12-28T06:53:57.544Z,18.42
2022-12-28T06:56:32.987Z,13.40
2022-12-28T06:59:04.276Z,12.18
2022-12-28T07:01:36.632Z,12.48
2022-12-28T07:04:05.746Z,27.00
2022-12-28T07:06:37.359Z,22.25
2022-12-28T07:09:08.879Z,12.57
2022-12-28T07:11:37.103Z,10.52
2022-12-28T07:14:04.881Z,22.25
2022-12-28T07:18:59.953Z,18.65
2022-12-28T07:21:29.120Z,15.00
2022-12-28T07:23:57.290Z,41.42
2022-12-28T07:26:26.543Z,14.70
2022-12-28T07:28:55.577Z,26.48
2022-12-28T07:31:37.076Z,10.40
2022-12-28T07:34:09.766Z,19.75
2022-12-28T07:36:37.401Z,22.92
2022-12-28T07:39:05.481Z,15.75
2022-12-28T07:41:34.094Z,14.85
2022-12-28T07:44:02.003Z,16.75
2022-12-28T07:46:30.880Z,24.48
2022-12-28T07:48:58.832Z,23.08
2022-12-28T07:51:27.735Z,13.48
2022-12-28T07:53:56.324Z,27.83
2022-12-28T07:56:25.087Z,42.45
2022-12-28T07:58:53.774Z,13.65
2022-12-28T08:01:22.607Z,22.52
2022-12-28T08:03:54.983Z,13.60
2022-12-28T08:06:23.551Z,27.38
2022-12-28T08:08:52.554Z,15.10
2022-12-28T08:11:22.064Z,30.42
2022-12-28T08:13:50.786Z,18.92
2022-12-28T08:16:19.368Z,41.90
2022-12-28T08:18:47.451Z,20.15
2022-12-28T08:21:17.271Z,64.38
2022-12-28T08:23:45.541Z,91.72
2022-12-28T08:26:16.114Z,60.95
2022-12-28T08:28:45.428Z,56.70
2022-12-28T08:31:18.678Z,50.78
2022-12-28T08:33:46.259Z,39.15
2022-12-28T08:36:13.994Z,55.28
2022-12-28T08:38:43.667Z,43.83
2022-12-28T08:41:15.649Z,57.70
2022-12-28T08:43:43.415Z,16.02
2022-12-28T08:46:21.218Z,34.75
2022-12-28T08:48:50.759Z,20.58
2022-12-28T08:51:23.177Z,32.63
2022-12-28T08:53:51.366Z,33.53
2022-12-28T08:56:24.071Z,17.42
2022-12-28T08:58:52.251Z,106.57
2022-12-28T09:01:27.895Z,91.22
2022-12-28T09:03:57.135Z,44.33
2022-12-28T09:06:37.452Z,33.78
2022-12-28T09:09:07.390Z,35.92
2022-12-28T09:11:39.228Z,48.55
2022-12-28T09:14:09.646Z,18.58
2022-12-28T09:16:38.823Z,30.02
2022-12-28T09:19:09.729Z,36.72
2022-12-28T09:21:38.721Z,21.75
2022-12-28T09:24:13.186Z,18.98
2022-12-28T09:26:42.888Z,53.88
2022-12-28T09:29:13.632Z,23.85
2022-12-28T09:31:42.411Z,27.83
2022-12-28T09:37:03.091Z,19.35
2022-12-28T09:42:14.870Z,20.42
2022-12-28T09:44:48.579Z,23.33
2022-12-28T09:47:38.116Z,31.20
2022-12-28T09:50:17.900Z,36.20
2022-12-28T09:53:07.228Z,22.85
2022-12-28T09:55:36.354Z,34.72
2022-12-28T09:58:05.668Z,34.53
2022-12-28T10:00:41.869Z,54.35
2022-12-28T10:03:40.549Z,31.35
2022-12-28T10:06:17.086Z,90.65
2022-12-28T10:08:54.608Z,77.45
2022-12-28T10:11:34.460Z,91.05
2022-12-28T10:14:04.198Z,74.40
2022-12-28T10:16:33.080Z,71.45
2022-12-28T10:19:01.045Z,88.40
2022-12-28T10:21:36.283Z,92.22
2022-12-28T10:26:59.121Z,76.72
2022-12-28T10:29:27.623Z,111.10
2022-12-28T10:32:09.179Z,66.50
2022-12-28T10:34:37.685Z,87.18
2022-12-28T10:37:17.288Z,75.68
2022-12-28T10:40:07.834Z,72.60
2022-12-28T10:42:46.655Z,76.25
2022-12-28T10:45:24.611Z,42.42
2022-12-28T10:47:56.993Z,26.67
2022-12-28T10:50:43.314Z,31.42
2022-12-28T10:53:59.933Z,26.77
2022-12-28T10:56:30.042Z,34.75
2022-12-28T11:01:43.891Z,29.13
2022-12-28T11:04:20.533Z,26.17
2022-12-28T11:09:30.192Z,28.55
2022-12-28T11:12:26.829Z,25.25
2022-12-28T11:14:54.728Z,38.40
2022-12-28T11:17:26.109Z,44.47
2022-12-28T11:20:16.795Z,26.95
2022-12-28T11:22:45.577Z,35.05
2022-12-28T11:25:18.663Z,30.88
2022-12-28T11:27:49.134Z,21.05
2022-12-28T11:30:18.667Z,42.55
2022-12-28T11:32:59.876Z,58.58
2022-12-28T11:35:34.099Z,51.03
2022-12-28T11:38:03.764Z,47.13
2022-12-28T11:40:47.143Z,51.08
2022-12-28T11:43:29.920Z,57.33
2022-12-28T11:45:58.016Z,60.80
2022-12-28T11:48:50.718Z,25.33
2022-12-28T11:51:23.371Z,48.40
2022-12-28T11:53:58.823Z,39.08
2022-12-28T11:56:44.619Z,33.97
2022-12-28T11:59:21.403Z,44.65
2022-12-28T12:01:50.816Z,42.90
2022-12-28T12:04:43.304Z,30.00
2022-12-28T12:07:20.270Z,35.20
2022-12-28T12:09:49.620Z,22.63
2022-12-28T12:12:18.504Z,26.88
2022-12-28T12:15:01.318Z,31.73
2022-12-28T12:17:42.933Z,18.63
2022-12-28T12:20:29.464Z,50.10
2022-12-28T12:23:26.161Z,54.63
2022-12-28T12:25:57.031Z,25.63
2022-12-28T12:28:48.760Z,41.70
2022-12-28T12:31:41.565Z,42.83
2022-12-28T12:34:37.394Z,24.13
2022-12-28T12:37:26.447Z,65.15
2022-12-28T12:40:27.673Z,32.20
2022-12-28T12:43:24.197Z,47.45
2022-12-28T12:46:15.994Z,38.45
2022-12-28T12:49:01.434Z,48.65
2022-12-28T12:51:31.670Z,37.45
2022-12-28T12:54:19.341Z,25.13
2022-12-28T12:56:58.970Z,39.63
2022-12-28T12:59:52.517Z,30.00
2022-12-28T13:02:20.741Z,55.28
2022-12-28T13:04:50.520Z,33.22
2022-12-28T13:07:26.433Z,37.75
2022-12-28T13:09:57.498Z,44.95
2022-12-28T13:12:25.411Z,44.30
2022-12-28T13:15:09.110Z,34.45
2022-12-28T13:18:18.143Z,43.67
2022-12-28T13:20:59.938Z,24.35
2022-12-28T13:23:29.565Z,40.85
2022-12-28T13:26:03.885Z,49.00
2022-12-28T13:28:35.202Z,52.17
2022-12-28T13:31:16.683Z,41.60
2022-12-28T13:33:44.461Z,56.00
2022-12-28T13:36:15.836Z,42.05
2022-12-28T13:38:43.488Z,37.35
2022-12-28T13:41:29.256Z,47.85
2022-12-28T13:44:30.624Z,23.23
2022-12-28T13:47:28.383Z,35.22
2022-12-28T13:49:56.065Z,20.90
2022-12-28T13:52:29.231Z,40.33
2022-12-28T13:55:00.891Z,39.20
2022-12-28T13:57:49.317Z,28.70
2022-12-28T14:00:20.936Z,23.85
2022-12-28T14:02:50.911Z,19.55
2022-12-28T14:05:21.545Z,36.63
2022-12-28T14:07:50.446Z,24.70
2022-12-28T14:10:20.493Z,34.40
2022-12-28T14:12:50.424Z,31.13
2022-12-28T14:15:23.138Z,36.53
2022-12-28T14:17:51.729Z,34.30
2022-12-28T14:20:23.229Z,26.05
2022-12-28T14:22:50.913Z,32.63
2022-12-28T14:25:22.571Z,34.67
2022-12-28T14:28:00.801Z,28.10
2022-12-28T14:30:38.897Z,18.48
2022-12-28T14:33:22.245Z,36.13
2022-12-28T14:35:55.313Z,28.13
2022-12-28T14:38:25.782Z,16.17
2022-12-28T14:40:55.652Z,28.83
2022-12-28T14:43:30.835Z,16.98
2022-12-28T14:46:07.156Z,28.08
2022-12-28T14:48:42.997Z,30.77
2022-12-28T14:54:20.873Z,22.38
2022-12-28T14:57:16.425Z,51.40
2022-12-28T14:59:47.418Z,22.58
2022-12-28T15:02:52.737Z,43.95
2022-12-28T15:05:54.584Z,26.80
2022-12-28T15:08:23.228Z,31.00
2022-12-28T15:10:59.066Z,32.63
2022-12-28T15:13:28.067Z,20.13
2022-12-28T15:16:00.251Z,15.43
2022-12-28T15:18:30.680Z,20.58
2022-12-28T15:20:58.776Z,15.15
2022-12-28T15:23:26.899Z,21.02
2022-12-28T15:25:54.947Z,21.33
2022-12-28T15:28:26.558Z,18.58
2022-12-28T15:30:54.334Z,59.45
2022-12-28T15:33:25.056Z,17.83
2022-12-28T15:36:01.783Z,25.92
2022-12-28T15:38:29.812Z,26.27
2022-12-28T15:40:57.931Z,16.95
2022-12-28T15:43:26.001Z,13.13
2022-12-28T15:45:54.850Z,19.20
2022-12-28T15:48:22.644Z,14.63
2022-12-28T15:50:50.616Z,14.90
2022-12-28T15:53:18.575Z,9.25
2022-12-28T15:55:57.815Z,20.88
2022-12-28T15:58:25.565Z,10.20
2022-12-28T16:00:53.162Z,15.13
2022-12-28T16:03:21.278Z,6.10
2022-12-28T16:05:51.429Z,14.27
2022-12-28T16:10:46.769Z,12.85
2022-12-28T16:13:14.822Z,13.85
2022-12-28T16:15:45.166Z,11.00
2022-12-28T16:18:14.120Z,8.40
2022-12-28T16:20:45.708Z,15.95
2022-12-28T16:23:13.506Z,18.55
2022-12-28T16:25:41.368Z,18.63
2022-12-28T16:28:09.518Z,8.68
2022-12-28T16:30:49.126Z,11.15
2022-12-28T16:33:17.262Z,10.07
2022-12-28T16:35:53.021Z,7.47
2022-12-28T16:38:27.902Z,23.27
2022-12-28T16:41:01.639Z,12.50
2022-12-28T16:43:29.520Z,9.05
2022-12-28T16:46:03.226Z,17.15
2022-12-28T16:48:30.964Z,13.93
2022-12-28T16:50:59.852Z,7.60
2022-12-28T16:53:31.807Z,9.05
2022-12-28T16:56:01.431Z,7.80
2022-12-28T16:58:30.562Z,14.15
2022-12-28T17:00:58.529Z,4.40
2022-12-28T17:03:29.408Z,3.55
2022-12-28T17:06:00.365Z,3.05
2022-12-28T17:08:28.152Z,3.72
2022-12-28T17:10:57.069Z,9.98
2022-12-28T17:13:25.394Z,11.02
2022-12-28T17:15:53.551Z,9.68
2022-12-28T17:18:21.139Z,10.98
2022-12-28T17:20:51.869Z,5.72
2022-12-28T17:23:21.437Z,9.95
2022-12-28T17:25:53.692Z,5.47
2022-12-28T17:28:21.639Z,9.65
2022-12-28T17:30:51.958Z,9.48
2022-12-28T17:33:20.326Z,10.88
2022-12-28T17:35:48.119Z,8.77
2022-12-28T17:38:15.929Z,6.40
2022-12-28T17:40:44.324Z,3.95
2022-12-28T17:43:12.135Z,12.13
2022-12-28T17:45:42.480Z,4.20
2022-12-28T17:48:11.364Z,3.50
2022-12-28T17:50:47.246Z,3.35
2022-12-28T17:53:15.364Z,5.28
2022-12-28T17:55:43.243Z,5.93
2022-12-28T17:58:10.921Z,3.40
2022-12-28T18:00:38.575Z,9.82
2022-12-28T18:03:07.506Z,6.30
2022-12-28T18:05:35.573Z,11.60
2022-12-28T18:08:03.228Z,7.35
2022-12-28T18:10:31.139Z,3.17
2022-12-28T18:13:02.401Z,4.45
2022-12-28T18:15:33.177Z,6.75
2022-12-28T18:18:01.538Z,11.60
2022-12-28T18:20:29.140Z,6.10
2022-12-28T18:22:56.642Z,9.02
2022-12-28T18:25:24.628Z,5.22
2022-12-28T18:27:52.637Z,16.05
2022-12-28T18:30:20.102Z,6.13
2022-12-28T18:32:49.134Z,12.02
2022-12-28T18:35:17.220Z,2.90
2022-12-28T18:37:45.035Z,3.50
2022-12-28T18:40:12.883Z,4.45
2022-12-28T18:42:40.978Z,2.90
2022-12-28T18:45:09.420Z,6.07
2022-12-28T18:47:37.292Z,6.60
2022-12-28T18:50:05.606Z,2.70
2022-12-28T18:52:35.958Z,4.22
2022-12-28T18:55:04.179Z,11.00
2022-12-28T18:57:32.089Z,4.70
2022-12-28T18:59:59.832Z,5.85
2022-12-28T19:02:27.777Z,2.50
2022-12-28T19:04:55.577Z,3.55
2022-12-28T19:07:25.257Z,5.85
2022-12-28T19:10:13.035Z,3.88
2022-12-28T19:12:44.613Z,3.50
2022-12-28T19:15:12.528Z,3.25
2022-12-28T19:17:41.135Z,4.40
2022-12-28T19:20:09.187Z,6.07
2022-12-28T19:22:36.935Z,6.60
2022-12-28T19:25:04.824Z,5.30
2022-12-28T19:27:32.883Z,4.13
2022-12-28T19:30:00.713Z,3.25
2022-12-28T19:32:28.376Z,3.20
2022-12-28T19:34:57.667Z,6.28
2022-12-28T19:37:25.226Z,2.25
2022-12-28T19:39:57.653Z,3.88
2022-12-28T19:42:25.843Z,5.13
2022-12-28T19:44:53.591Z,3.25
2022-12-28T19:47:21.414Z,4.45
2022-12-28T19:49:49.338Z,5.70
2022-12-28T19:52:21.545Z,5.38
2022-12-28T19:54:49.311Z,3.08
2022-12-28T19:57:19.727Z,9.65
2022-12-28T19:59:48.435Z,5.35
2022-12-28T20:02:16.579Z,3.72
2022-12-28T20:04:45.567Z,4.07
2022-12-28T20:07:16.303Z,4.93
2022-12-28T20:09:50.800Z,3.88
2022-12-28T20:12:22.508Z,4.43
2022-12-28T20:14:50.590Z,3.25
2022-12-28T20:17:18.679Z,3.80
2022-12-28T20:19:46.450Z,3.58
2022-12-28T20:22:14.462Z,4.97
2022-12-28T20:24:42.281Z,4.53
2022-12-28T20:27:10.222Z,3.15
2022-12-28T20:29:37.986Z,4.35
2022-12-28T20:32:08.327Z,3.90
2022-12-28T20:34:36.059Z,4.45
2022-12-28T20:37:03.982Z,7.22
2022-12-28T20:39:31.506Z,2.45
2022-12-28T20:42:17.986Z,3.53
2022-12-28T20:44:45.738Z,3.47
2022-12-28T20:47:13.748Z,5.22
2022-12-28T20:49:41.771Z,3.00
2022-12-28T20:52:09.891Z,11.25
2022-12-28T20:54:37.633Z,5.60
2022-12-28T20:57:05.425Z,8.00
2022-12-28T20:59:34.253Z,4.22
2022-12-28T21:02:02.386Z,3.15
2022-12-28T21:04:30.804Z,2.88
2022-12-28T21:06:58.864Z,2.88
2022-12-28T21:09:26.830Z,4.25
2022-12-28T21:11:54.947Z,4.15
2022-12-28T21:14:22.776Z,3.67
2022-12-28T21:16:50.619Z,2.75
2022-12-28T21:19:18.510Z,8.32
2022-12-28T21:21:48.733Z,3.50
2022-12-28T21:26:44.234Z,2.92
2022-12-28T21:29:12.079Z,3.63
2022-12-28T21:31:42.820Z,4.72
2022-12-28T21:34:10.537Z,3.70
2022-12-28T21:36:38.482Z,3.70
2022-12-28T21:39:06.391Z,3.33
2022-12-28T21:41:49.638Z,4.43
2022-12-28T21:44:23.108Z,3.25
2022-12-28T21:46:55.886Z,3.28
2022-12-28T21:49:23.626Z,4.40
2022-12-28T21:51:51.715Z,6.22
2022-12-28T21:54:22.860Z,4.72
2022-12-28T21:56:55.016Z,4.18
2022-12-28T21:59:24.108Z,4.20
2022-12-28T22:02:11.066Z,2.50
2022-12-28T22:05:02.536Z,5.53
2022-12-28T22:07:35.661Z,4.53
2022-12-28T22:10:22.236Z,3.20
2022-12-28T22:12:50.397Z,4.72
2022-12-28T22:15:40.197Z,2.13
2022-12-28T22:18:37.190Z,4.28
2022-12-28T22:21:10.375Z,3.65
2022-12-28T22:23:38.110Z,3.60
2022-12-28T22:26:05.934Z,2.95
2022-12-28T22:28:33.969Z,4.25
2022-12-28T22:31:05.845Z,3.33
2022-12-28T22:33:37.443Z,4.32
2022-12-28T22:36:16.943Z,3.63
2022-12-28T22:38:45.031Z,5.60
2022-12-28T22:41:12.979Z,3.17
2022-12-28T22:43:40.989Z,1.92
2022-12-28T22:46:10.988Z,6.22
2022-12-28T22:48:38.951Z,4.47
2022-12-28T22:51:09.048Z,4.95
2022-12-28T22:53:37.136Z,4.07
2022-12-28T22:56:07.946Z,5.50
2022-12-28T22:58:35.665Z,4.63
2022-12-28T23:01:05.048Z,3.85
2022-12-28T23:03:34.130Z,3.47
2022-12-28T23:06:01.853Z,2.90
2022-12-28T23:08:29.689Z,4.00
2022-12-28T23:10:58.537Z,2.92
2022-12-28T23:13:27.253Z,4.53
2022-12-28T23:16:05.311Z,3.35
2022-12-28T23:18:53.988Z,3.83
2022-12-28T23:21:42.039Z,3.03
2022-12-28T23:24:32.025Z,2.65
2022-12-28T23:27:18.593Z,5.32
2022-12-28T23:29:46.992Z,3.90
2022-12-28T23:32:14.839Z,2.90
2022-12-28T23:34:43.010Z,9.38
2022-12-28T23:37:11.030Z,3.08
2022-12-28T23:39:38.686Z,2.35
2022-12-28T23:42:06.749Z,3.17
2022-12-28T23:44:34.620Z,4.53
2022-12-28T23:47:02.532Z,4.47
2022-12-28T23:49:30.501Z,1.50
2022-12-28T23:52:00.766Z,2.53
2022-12-28T23:56:58.328Z,3.65
2022-12-28T23:59:26.369Z,3.60
